sensor_id;sensor_type;location;lat;lon;timestamp;pressure;altitude;pressure_sealevel;temperature;humidity
76940;BME280;65885;55.848;35.916;2023-08-24T00:00:48;98875.06;;;14.87;80.92
76940;BME280;65885;55.848;35.916;2023-08-24T00:03:15;98877.19;;;14.94;80.63
76940;BME280;65885;55.848;35.916;2023-08-24T00:05:42;98872.66;;;14.96;80.51
76940;BME280;65885;55.848;35.916;2023-08-24T00:08:10;98866.50;;;14.96;80.39
76940;BME280;65885;55.848;35.916;2023-08-24T00:10:39;98878.03;;;14.95;80.40
76940;BME280;65885;55.848;35.916;2023-08-24T00:13:06;98874.66;;;14.93;80.38
76940;BME280;65885;55.848;35.916;2023-08-24T00:15:34;98874.66;;;14.93;80.53
76940;BME280;65885;55.848;35.916;2023-08-24T00:18:01;98869.25;;;14.94;80.45
76940;BME280;65885;55.848;35.916;2023-08-24T00:20:28;98874.53;;;14.94;80.45
76940;BME280;65885;55.848;35.916;2023-08-24T00:22:56;98883.31;;;14.95;80.42
76940;BME280;65885;55.848;35.916;2023-08-24T00:25:23;98884.16;;;14.95;80.34
76940;BME280;65885;55.848;35.916;2023-08-24T00:27:53;98880.59;;;14.96;80.50
76940;BME280;65885;55.848;35.916;2023-08-24T00:30:20;98876.34;;;14.94;80.59
76940;BME280;65885;55.848;35.916;2023-08-24T00:32:48;98882.47;;;14.94;80.39
76940;BME280;65885;55.848;35.916;2023-08-24T00:35:16;98878.25;;;14.92;80.47
76940;BME280;65885;55.848;35.916;2023-08-24T00:37:43;98874.88;;;14.90;80.46
76940;BME280;65885;55.848;35.916;2023-08-24T00:40:11;98875.72;;;14.90;80.47
76940;BME280;65885;55.848;35.916;2023-08-24T00:42:38;98878.88;;;14.95;80.58
76940;BME280;65885;55.848;35.916;2023-08-24T00:45:09;98869.50;;;15.04;80.76
76940;BME280;65885;55.848;35.916;2023-08-24T00:47:37;98871.38;;;15.15;80.91
76940;BME280;65885;55.848;35.916;2023-08-24T00:50:07;98872.34;;;15.26;80.90
76940;BME280;65885;55.848;35.916;2023-08-24T00:52:36;98875.19;;;15.36;80.61
76940;BME280;65885;55.848;35.916;2023-08-24T00:55:05;98881.50;;;15.46;80.55
76940;BME280;65885;55.848;35.916;2023-08-24T00:57:33;98876.50;;;15.54;80.21
76940;BME280;65885;55.848;35.916;2023-08-24T01:00:03;98879.78;;;15.58;79.73
76940;BME280;65885;55.848;35.916;2023-08-24T01:02:35;98873.75;;;15.56;79.52
76940;BME280;65885;55.848;35.916;2023-08-24T01:05:03;98870.38;;;15.54;79.37
76940;BME280;65885;55.848;35.916;2023-08-24T01:07:33;98874.09;;;15.51;79.13
76940;BME280;65885;55.848;35.916;2023-08-24T01:10:01;98871.66;;;15.48;79.22
76940;BME280;65885;55.848;35.916;2023-08-24T01:12:40;98866.72;;;15.44;79.35
76940;BME280;65885;55.848;35.916;2023-08-24T01:15:14;98866.81;;;15.42;79.43
76940;BME280;65885;55.848;35.916;2023-08-24T01:17:46;98869.66;;;15.39;79.35
76940;BME280;65885;55.848;35.916;2023-08-24T01:20:15;98869.03;;;15.36;79.51
76940;BME280;65885;55.848;35.916;2023-08-24T01:22:47;98873.38;;;15.37;79.79
76940;BME280;65885;55.848;35.916;2023-08-24T01:25:32;98876.75;;;15.39;79.93
76940;BME280;65885;55.848;35.916;2023-08-24T01:28:06;98877.47;;;15.41;80.01
76940;BME280;65885;55.848;35.916;2023-08-24T01:30:34;98885.41;;;15.41;80.18
76940;BME280;65885;55.848;35.916;2023-08-24T01:33:02;98880.22;;;15.39;80.25
76940;BME280;65885;55.848;35.916;2023-08-24T01:35:30;98878.66;;;15.37;79.89
76940;BME280;65885;55.848;35.916;2023-08-24T01:37:58;98871.81;;;15.34;80.08
76940;BME280;65885;55.848;35.916;2023-08-24T01:40:36;98876.84;;;15.37;80.32
76940;BME280;65885;55.848;35.916;2023-08-24T01:43:07;98872.72;;;15.46;80.51
76940;BME280;65885;55.848;35.916;2023-08-24T01:45:34;98875.66;;;15.54;80.53
76940;BME280;65885;55.848;35.916;2023-08-24T01:48:03;98870.72;;;15.62;80.48
76940;BME280;65885;55.848;35.916;2023-08-24T01:50:31;98870.03;;;15.71;80.31
76940;BME280;65885;55.848;35.916;2023-08-24T01:52:59;98872.91;;;15.81;80.20
76940;BME280;65885;55.848;35.916;2023-08-24T01:55:27;98873.06;;;15.91;79.95
76940;BME280;65885;55.848;35.916;2023-08-24T01:57:55;98871.03;;;15.94;79.76
76940;BME280;65885;55.848;35.916;2023-08-24T02:00:24;98858.75;;;15.93;79.17
76940;BME280;65885;55.848;35.916;2023-08-24T02:02:51;98873.91;;;15.91;78.94
76940;BME280;65885;55.848;35.916;2023-08-24T02:05:18;98872.47;;;15.87;78.87
76940;BME280;65885;55.848;35.916;2023-08-24T02:07:46;98869.06;;;15.85;78.78
76940;BME280;65885;55.848;35.916;2023-08-24T02:10:13;98867.38;;;15.84;78.73
76940;BME280;65885;55.848;35.916;2023-08-24T02:12:40;98864.84;;;15.82;79.08
76940;BME280;65885;55.848;35.916;2023-08-24T02:15:08;98870.25;;;15.81;79.24
76940;BME280;65885;55.848;35.916;2023-08-24T02:17:37;98873.09;;;15.78;79.23
76940;BME280;65885;55.848;35.916;2023-08-24T02:20:07;98871.41;;;15.77;79.14
76940;BME280;65885;55.848;35.916;2023-08-24T02:22:35;98861.91;;;15.74;79.31
76940;BME280;65885;55.848;35.916;2023-08-24T02:25:03;98871.66;;;15.74;79.52
76940;BME280;65885;55.848;35.916;2023-08-24T02:27:31;98871.75;;;15.72;79.46
76940;BME280;65885;55.848;35.916;2023-08-24T02:29:58;98872.47;;;15.74;79.64
76940;BME280;65885;55.848;35.916;2023-08-24T02:32:26;98868.03;;;15.75;79.65
76940;BME280;65885;55.848;35.916;2023-08-24T02:34:55;98865.28;;;15.76;79.81
76940;BME280;65885;55.848;35.916;2023-08-24T02:37:22;98872.06;;;15.80;80.14
76940;BME280;65885;55.848;35.916;2023-08-24T02:39:49;98868.09;;;15.86;80.07
76940;BME280;65885;55.848;35.916;2023-08-24T02:42:16;98870.94;;;15.96;79.97
76940;BME280;65885;55.848;35.916;2023-08-24T02:44:44;98874.72;;;16.04;79.90
76940;BME280;65885;55.848;35.916;2023-08-24T02:47:11;98864.16;;;16.16;80.05
76940;BME280;65885;55.848;35.916;2023-08-24T02:49:38;98875.88;;;16.24;79.88
76940;BME280;65885;55.848;35.916;2023-08-24T02:52:07;98871.34;;;16.26;79.30
76940;BME280;65885;55.848;35.916;2023-08-24T02:54:34;98869.75;;;16.24;79.15
76940;BME280;65885;55.848;35.916;2023-08-24T02:57:01;98883.09;;;16.22;78.87
76940;BME280;65885;55.848;35.916;2023-08-24T02:59:29;98876.22;;;16.20;78.84
76940;BME280;65885;55.848;35.916;2023-08-24T03:01:57;98876.44;;;16.17;79.01
76940;BME280;65885;55.848;35.916;2023-08-24T03:04:24;98877.41;;;16.16;79.03
76940;BME280;65885;55.848;35.916;2023-08-24T03:06:51;98873.78;;;16.17;79.29
76940;BME280;65885;55.848;35.916;2023-08-24T03:09:20;98876.44;;;16.17;79.37
76940;BME280;65885;55.848;35.916;2023-08-24T03:11:48;98872.09;;;16.16;79.64
76940;BME280;65885;55.848;35.916;2023-08-24T03:14:16;98869.59;;;16.14;79.64
76940;BME280;65885;55.848;35.916;2023-08-24T03:16:45;98875.00;;;16.13;79.73
76940;BME280;65885;55.848;35.916;2023-08-24T03:19:12;98874.34;;;16.09;79.73
76940;BME280;65885;55.848;35.916;2023-08-24T03:21:40;98872.56;;;16.09;79.79
76940;BME280;65885;55.848;35.916;2023-08-24T03:24:07;98879.56;;;16.11;79.90
76940;BME280;65885;55.848;35.916;2023-08-24T03:26:36;98874.03;;;16.14;80.20
76940;BME280;65885;55.848;35.916;2023-08-24T03:29:03;98874.44;;;16.20;80.46
76940;BME280;65885;55.848;35.916;2023-08-24T03:31:30;98876.50;;;16.28;80.69
76940;BME280;65885;55.848;35.916;2023-08-24T03:33:58;98880.28;;;16.36;80.59
76940;BME280;65885;55.848;35.916;2023-08-24T03:36:25;98883.81;;;16.48;80.68
76940;BME280;65885;55.848;35.916;2023-08-24T03:38:53;98879.50;;;16.58;80.58
76940;BME280;65885;55.848;35.916;2023-08-24T03:41:20;98890.63;;;16.63;80.14
76940;BME280;65885;55.848;35.916;2023-08-24T03:43:49;98891.56;;;16.62;79.57
76940;BME280;65885;55.848;35.916;2023-08-24T03:46:16;98889.97;;;16.60;79.27
76940;BME280;65885;55.848;35.916;2023-08-24T03:48:43;98883.13;;;16.57;79.21
76940;BME280;65885;55.848;35.916;2023-08-24T03:51:10;98886.94;;;16.53;79.26
76940;BME280;65885;55.848;35.916;2023-08-24T03:53:38;98891.66;;;16.50;79.26
76940;BME280;65885;55.848;35.916;2023-08-24T03:56:05;98886.69;;;16.45;79.30
76940;BME280;65885;55.848;35.916;2023-08-24T03:58:33;98893.91;;;16.43;79.38
76940;BME280;65885;55.848;35.916;2023-08-24T04:01:02;98886.41;;;16.37;79.33
76940;BME280;65885;55.848;35.916;2023-08-24T04:03:29;98890.25;;;16.33;79.33
76940;BME280;65885;55.848;35.916;2023-08-24T04:05:56;98891.44;;;16.29;79.41
76940;BME280;65885;55.848;35.916;2023-08-24T04:08:24;98886.25;;;16.27;79.62
76940;BME280;65885;55.848;35.916;2023-08-24T04:10:51;98891.66;;;16.26;79.96
76940;BME280;65885;55.848;35.916;2023-08-24T04:13:18;98885.53;;;16.25;79.91
76940;BME280;65885;55.848;35.916;2023-08-24T04:15:46;98885.75;;;16.22;80.00
76940;BME280;65885;55.848;35.916;2023-08-24T04:18:14;98895.59;;;16.20;79.85
76940;BME280;65885;55.848;35.916;2023-08-24T04:20:42;98892.09;;;16.20;80.06
76940;BME280;65885;55.848;35.916;2023-08-24T04:23:09;98890.31;;;16.20;79.90
76940;BME280;65885;55.848;35.916;2023-08-24T04:25:39;98892.00;;;16.21;80.08
76940;BME280;65885;55.848;35.916;2023-08-24T04:28:06;98884.78;;;16.23;80.29
76940;BME280;65885;55.848;35.916;2023-08-24T04:30:34;98896.59;;;16.30;80.51
76940;BME280;65885;55.848;35.916;2023-08-24T04:33:01;98884.41;;;16.41;80.67
76940;BME280;65885;55.848;35.916;2023-08-24T04:35:33;98888.88;;;16.51;80.73
76940;BME280;65885;55.848;35.916;2023-08-24T04:38:02;98886.28;;;16.62;80.60
76940;BME280;65885;55.848;35.916;2023-08-24T04:40:29;98893.44;;;16.73;80.47
76940;BME280;65885;55.848;35.916;2023-08-24T04:42:57;98895.75;;;16.78;79.93
76940;BME280;65885;55.848;35.916;2023-08-24T04:45:24;98897.44;;;16.79;79.65
76940;BME280;65885;55.848;35.916;2023-08-24T04:47:51;98900.19;;;16.77;79.43
76940;BME280;65885;55.848;35.916;2023-08-24T04:50:19;98894.03;;;16.77;79.50
76940;BME280;65885;55.848;35.916;2023-08-24T04:52:47;98893.19;;;16.76;79.37
76940;BME280;65885;55.848;35.916;2023-08-24T04:55:15;98896.22;;;16.72;79.31
76940;BME280;65885;55.848;35.916;2023-08-24T04:57:42;98896.34;;;16.70;79.60
76940;BME280;65885;55.848;35.916;2023-08-24T05:00:10;98902.47;;;16.71;79.53
76940;BME280;65885;55.848;35.916;2023-08-24T05:02:41;98891.03;;;16.70;79.82
76940;BME280;65885;55.848;35.916;2023-08-24T05:05:09;98898.00;;;16.71;80.09
76940;BME280;65885;55.848;35.916;2023-08-24T05:07:38;98899.69;;;16.72;80.19
76940;BME280;65885;55.848;35.916;2023-08-24T05:10:08;98895.13;;;16.74;80.19
76940;BME280;65885;55.848;35.916;2023-08-24T05:12:35;98894.03;;;16.77;80.34
76940;BME280;65885;55.848;35.916;2023-08-24T05:15:02;98893.81;;;16.80;80.48
76940;BME280;65885;55.848;35.916;2023-08-24T05:17:30;98895.63;;;16.79;80.30
76940;BME280;65885;55.848;35.916;2023-08-24T05:19:58;98906.09;;;16.81;80.43
76940;BME280;65885;55.848;35.916;2023-08-24T05:22:25;98894.28;;;16.85;80.40
76940;BME280;65885;55.848;35.916;2023-08-24T05:24:53;98894.81;;;16.90;80.65
76940;BME280;65885;55.848;35.916;2023-08-24T05:27:22;98903.38;;;16.94;80.56
76940;BME280;65885;55.848;35.916;2023-08-24T05:29:49;98890.84;;;16.96;80.71
76940;BME280;65885;55.848;35.916;2023-08-24T05:32:16;98901.81;;;17.02;80.64
76940;BME280;65885;55.848;35.916;2023-08-24T05:34:45;98897.00;;;17.07;80.88
76940;BME280;65885;55.848;35.916;2023-08-24T05:37:12;98897.63;;;17.11;80.69
76940;BME280;65885;55.848;35.916;2023-08-24T05:39:39;98890.25;;;17.14;80.79
76940;BME280;65885;55.848;35.916;2023-08-24T05:42:07;98889.19;;;17.17;80.44
76940;BME280;65885;55.848;35.916;2023-08-24T05:44:36;98890.50;;;17.23;80.47
76940;BME280;65885;55.848;35.916;2023-08-24T05:47:04;98890.16;;;17.27;80.78
76940;BME280;65885;55.848;35.916;2023-08-24T05:49:31;98895.97;;;17.32;80.81
76940;BME280;65885;55.848;35.916;2023-08-24T05:51:58;98892.59;;;17.41;80.90
76940;BME280;65885;55.848;35.916;2023-08-24T05:54:26;98893.41;;;17.53;81.10
76940;BME280;65885;55.848;35.916;2023-08-24T05:56:53;98892.44;;;17.65;81.27
76940;BME280;65885;55.848;35.916;2023-08-24T05:59:20;98901.03;;;17.80;81.05
76940;BME280;65885;55.848;35.916;2023-08-24T06:01:49;98900.16;;;17.91;80.62
76940;BME280;65885;55.848;35.916;2023-08-24T06:04:16;98900.50;;;17.97;79.99
76940;BME280;65885;55.848;35.916;2023-08-24T06:06:44;98906.31;;;18.02;79.73
76940;BME280;65885;55.848;35.916;2023-08-24T06:09:12;98908.81;;;18.04;79.29
76940;BME280;65885;55.848;35.916;2023-08-24T06:11:40;98907.00;;;18.05;79.07
76940;BME280;65885;55.848;35.916;2023-08-24T06:14:08;98919.22;;;18.07;79.22
76940;BME280;65885;55.848;35.916;2023-08-24T06:16:35;98909.56;;;18.06;79.17
76940;BME280;65885;55.848;35.916;2023-08-24T06:19:04;98920.19;;;18.06;79.04
76940;BME280;65885;55.848;35.916;2023-08-24T06:21:31;98908.81;;;18.04;79.16
76940;BME280;65885;55.848;35.916;2023-08-24T06:23:58;98918.38;;;18.07;79.07
76940;BME280;65885;55.848;35.916;2023-08-24T06:26:26;98920.63;;;18.11;79.55
76940;BME280;65885;55.848;35.916;2023-08-24T06:28:54;98919.56;;;18.14;79.75
76940;BME280;65885;55.848;35.916;2023-08-24T06:31:21;98922.22;;;18.14;79.24
76940;BME280;65885;55.848;35.916;2023-08-24T06:33:49;98914.47;;;18.11;78.99
76940;BME280;65885;55.848;35.916;2023-08-24T06:36:18;98919.78;;;18.11;78.85
76940;BME280;65885;55.848;35.916;2023-08-24T06:38:45;98918.94;;;18.10;78.35
76940;BME280;65885;55.848;35.916;2023-08-24T06:41:12;98917.28;;;18.09;78.04
76940;BME280;65885;55.848;35.916;2023-08-24T06:43:40;98926.34;;;18.07;77.51
76940;BME280;65885;55.848;35.916;2023-08-24T06:46:07;98924.00;;;18.13;77.73
76940;BME280;65885;55.848;35.916;2023-08-24T06:48:35;98929.66;;;18.20;77.79
76940;BME280;65885;55.848;35.916;2023-08-24T06:51:03;98923.84;;;18.26;77.81
76940;BME280;65885;55.848;35.916;2023-08-24T06:53:31;98923.03;;;18.25;76.83
76940;BME280;65885;55.848;35.916;2023-08-24T06:55:59;98917.91;;;18.34;77.26
76940;BME280;65885;55.848;35.916;2023-08-24T06:58:27;98919.72;;;18.44;77.14
76940;BME280;65885;55.848;35.916;2023-08-24T07:00:55;98928.34;;;18.57;77.35
76940;BME280;65885;55.848;35.916;2023-08-24T07:03:23;98927.94;;;18.73;77.48
76940;BME280;65885;55.848;35.916;2023-08-24T07:05:51;98928.38;;;18.90;77.51
76940;BME280;65885;55.848;35.916;2023-08-24T07:08:18;98924.13;;;19.08;77.23
76940;BME280;65885;55.848;35.916;2023-08-24T07:10:47;98910.41;;;19.33;77.89
76940;BME280;65885;55.848;35.916;2023-08-24T07:13:14;98921.72;;;19.56;77.56
76940;BME280;65885;55.848;35.916;2023-08-24T07:15:42;98914.84;;;19.75;76.52
76940;BME280;65885;55.848;35.916;2023-08-24T07:18:10;98913.81;;;19.97;75.63
76940;BME280;65885;55.848;35.916;2023-08-24T07:20:38;98913.84;;;20.16;74.79
76940;BME280;65885;55.848;35.916;2023-08-24T07:23:06;98921.28;;;20.32;74.25
76940;BME280;65885;55.848;35.916;2023-08-24T07:25:33;98918.00;;;20.49;73.88
76940;BME280;65885;55.848;35.916;2023-08-24T07:28:02;98914.34;;;20.60;73.12
76940;BME280;65885;55.848;35.916;2023-08-24T07:30:31;98917.56;;;20.73;73.89
76940;BME280;65885;55.848;35.916;2023-08-24T07:32:58;98923.03;;;20.81;73.48
76940;BME280;65885;55.848;35.916;2023-08-24T07:35:26;98929.91;;;20.84;73.23
76940;BME280;65885;55.848;35.916;2023-08-24T07:37:54;98927.38;;;20.82;72.43
76940;BME280;65885;55.848;35.916;2023-08-24T07:40:21;98930.59;;;20.76;71.74
76940;BME280;65885;55.848;35.916;2023-08-24T07:42:50;98937.47;;;20.69;71.23
76940;BME280;65885;55.848;35.916;2023-08-24T07:45:20;98931.59;;;20.56;71.08
76940;BME280;65885;55.848;35.916;2023-08-24T07:47:48;98936.31;;;20.42;71.26
76940;BME280;65885;55.848;35.916;2023-08-24T07:50:16;98945.53;;;20.29;71.12
76940;BME280;65885;55.848;35.916;2023-08-24T07:52:43;98931.78;;;20.14;71.26
76940;BME280;65885;55.848;35.916;2023-08-24T07:55:10;98937.47;;;20.00;71.64
76940;BME280;65885;55.848;35.916;2023-08-24T07:57:38;98939.69;;;19.85;71.64
76940;BME280;65885;55.848;35.916;2023-08-24T08:00:06;98942.00;;;19.68;71.79
76940;BME280;65885;55.848;35.916;2023-08-24T08:02:36;98938.31;;;19.60;72.77
76940;BME280;65885;55.848;35.916;2023-08-24T08:05:05;98943.00;;;19.56;73.70
76940;BME280;65885;55.848;35.916;2023-08-24T08:07:34;98951.97;;;19.55;74.31
76940;BME280;65885;55.848;35.916;2023-08-24T08:10:01;98943.44;;;19.52;73.64
76940;BME280;65885;55.848;35.916;2023-08-24T08:12:29;98942.97;;;19.47;73.38
76940;BME280;65885;55.848;35.916;2023-08-24T08:14:57;98956.13;;;19.48;73.89
76940;BME280;65885;55.848;35.916;2023-08-24T08:17:26;98957.25;;;19.46;74.00
76940;BME280;65885;55.848;35.916;2023-08-24T08:19:56;98949.09;;;19.37;73.75
76940;BME280;65885;55.848;35.916;2023-08-24T08:22:23;98951.81;;;19.26;73.96
76940;BME280;65885;55.848;35.916;2023-08-24T08:24:51;98949.22;;;19.15;73.91
76940;BME280;65885;55.848;35.916;2023-08-24T08:27:19;98949.56;;;19.01;73.48
76940;BME280;65885;55.848;35.916;2023-08-24T08:29:47;98957.00;;;18.86;73.24
76940;BME280;65885;55.848;35.916;2023-08-24T08:32:15;98959.94;;;18.72;73.83
76940;BME280;65885;55.848;35.916;2023-08-24T08:34:42;98955.50;;;18.61;74.37
76940;BME280;65885;55.848;35.916;2023-08-24T08:37:10;98961.69;;;18.50;74.90
76940;BME280;65885;55.848;35.916;2023-08-24T08:39:38;98959.91;;;18.40;75.68
76940;BME280;65885;55.848;35.916;2023-08-24T08:42:11;98957.03;;;18.32;76.10
76940;BME280;65885;55.848;35.916;2023-08-24T08:44:41;98959.34;;;18.25;76.09
76940;BME280;65885;55.848;35.916;2023-08-24T08:47:09;98956.47;;;18.17;75.99
76940;BME280;65885;55.848;35.916;2023-08-24T08:49:38;98970.34;;;18.09;75.91
76940;BME280;65885;55.848;35.916;2023-08-24T08:52:07;98969.16;;;18.02;76.23
76940;BME280;65885;55.848;35.916;2023-08-24T08:54:36;98967.94;;;17.95;76.22
76940;BME280;65885;55.848;35.916;2023-08-24T08:57:04;98972.91;;;17.88;76.52
76940;BME280;65885;55.848;35.916;2023-08-24T08:59:32;98978.69;;;17.82;76.78
76940;BME280;65885;55.848;35.916;2023-08-24T09:02:01;98973.88;;;17.76;77.21
76940;BME280;65885;55.848;35.916;2023-08-24T09:04:29;98982.91;;;17.73;77.49
76940;BME280;65885;55.848;35.916;2023-08-24T09:06:57;98979.63;;;17.70;77.95
76940;BME280;65885;55.848;35.916;2023-08-24T09:09:27;98984.94;;;17.70;78.09
76940;BME280;65885;55.848;35.916;2023-08-24T09:11:57;98984.72;;;17.73;78.47
76940;BME280;65885;55.848;35.916;2023-08-24T09:14:24;98991.22;;;17.80;78.65
76940;BME280;65885;55.848;35.916;2023-08-24T09:16:51;98992.31;;;17.89;78.65
76940;BME280;65885;55.848;35.916;2023-08-24T09:19:19;98996.16;;;17.96;78.63
76940;BME280;65885;55.848;35.916;2023-08-24T09:21:56;98999.81;;;18.06;78.50
76940;BME280;65885;55.848;35.916;2023-08-24T09:24:29;99008.34;;;18.10;78.09
76940;BME280;65885;55.848;35.916;2023-08-24T09:26:58;99000.25;;;18.11;77.72
76940;BME280;65885;55.848;35.916;2023-08-24T09:29:26;99004.72;;;18.11;77.68
76940;BME280;65885;55.848;35.916;2023-08-24T09:31:54;99003.03;;;18.10;77.71
76940;BME280;65885;55.848;35.916;2023-08-24T09:34:24;99000.53;;;18.08;77.87
76940;BME280;65885;55.848;35.916;2023-08-24T09:36:53;99006.91;;;18.06;77.80
76940;BME280;65885;55.848;35.916;2023-08-24T09:39:20;99008.72;;;18.05;78.05
76940;BME280;65885;55.848;35.916;2023-08-24T09:41:50;99011.13;;;18.08;78.17
76940;BME280;65885;55.848;35.916;2023-08-24T09:44:18;99011.97;;;18.09;78.35
76940;BME280;65885;55.848;35.916;2023-08-24T09:46:46;99013.19;;;18.16;78.65
76940;BME280;65885;55.848;35.916;2023-08-24T09:49:13;99006.16;;;18.26;78.80
76940;BME280;65885;55.848;35.916;2023-08-24T09:51:41;99010.09;;;18.43;79.20
76940;BME280;65885;55.848;35.916;2023-08-24T09:54:11;99011.03;;;18.64;79.61
76940;BME280;65885;55.848;35.916;2023-08-24T09:56:40;99015.09;;;18.91;79.53
76940;BME280;65885;55.848;35.916;2023-08-24T09:59:12;99012.53;;;19.21;79.64
76940;BME280;65885;55.848;35.916;2023-08-24T10:01:43;99014.28;;;19.53;79.10
76940;BME280;65885;55.848;35.916;2023-08-24T10:04:12;99012.19;;;19.77;78.48
76940;BME280;65885;55.848;35.916;2023-08-24T10:06:40;99012.44;;;19.95;77.66
76940;BME280;65885;55.848;35.916;2023-08-24T10:09:11;99018.38;;;20.08;76.71
76940;BME280;65885;55.848;35.916;2023-08-24T10:11:48;99017.84;;;20.14;75.39
76940;BME280;65885;55.848;35.916;2023-08-24T10:14:21;99017.84;;;20.14;74.08
76940;BME280;65885;55.848;35.916;2023-08-24T10:16:53;99019.78;;;20.12;73.81
76940;BME280;65885;55.848;35.916;2023-08-24T10:19:22;99017.28;;;20.11;73.77
76940;BME280;65885;55.848;35.916;2023-08-24T10:21:50;99030.13;;;20.06;73.63
76940;BME280;65885;55.848;35.916;2023-08-24T10:24:19;99030.09;;;19.96;72.99
76940;BME280;65885;55.848;35.916;2023-08-24T10:26:48;99030.44;;;19.82;72.15
76940;BME280;65885;55.848;35.916;2023-08-24T10:29:17;99030.84;;;19.77;72.76
76940;BME280;65885;55.848;35.916;2023-08-24T10:31:45;99033.63;;;19.76;73.37
76940;BME280;65885;55.848;35.916;2023-08-24T10:34:14;99032.09;;;19.73;73.10
76940;BME280;65885;55.848;35.916;2023-08-24T10:36:42;99035.03;;;19.80;73.64
76940;BME280;65885;55.848;35.916;2023-08-24T10:39:09;99033.84;;;19.93;74.35
76940;BME280;65885;55.848;35.916;2023-08-24T10:41:49;99037.44;;;20.13;74.35
76940;BME280;65885;55.848;35.916;2023-08-24T10:44:20;99039.06;;;20.35;73.92
76940;BME280;65885;55.848;35.916;2023-08-24T10:47:11;99039.59;;;20.60;73.77
76940;BME280;65885;55.848;35.916;2023-08-24T10:49:40;99043.28;;;20.88;73.85
76940;BME280;65885;55.848;35.916;2023-08-24T10:52:18;99039.38;;;21.11;73.14
76940;BME280;65885;55.848;35.916;2023-08-24T10:54:45;99044.44;;;21.33;72.51
76940;BME280;65885;55.848;35.916;2023-08-24T10:57:18;99039.22;;;21.51;71.48
76940;BME280;65885;55.848;35.916;2023-08-24T10:59:57;99047.78;;;21.65;70.02
76940;BME280;65885;55.848;35.916;2023-08-24T11:02:25;99046.34;;;21.80;69.93
76940;BME280;65885;55.848;35.916;2023-08-24T11:05:14;99049.69;;;21.92;69.50
76940;BME280;65885;55.848;35.916;2023-08-24T11:07:47;99054.88;;;21.93;69.33
76940;BME280;65885;55.848;35.916;2023-08-24T11:10:16;99052.94;;;21.85;67.98
76940;BME280;65885;55.848;35.916;2023-08-24T11:13:06;99051.97;;;21.77;67.35
76940;BME280;65885;55.848;35.916;2023-08-24T11:15:36;99049.88;;;21.71;67.51
76940;BME280;65885;55.848;35.916;2023-08-24T11:18:30;99051.97;;;21.67;67.62
76940;BME280;65885;55.848;35.916;2023-08-24T11:21:02;99044.69;;;21.69;67.94
76940;BME280;65885;55.848;35.916;2023-08-24T11:23:30;99050.41;;;21.74;67.54
76940;BME280;65885;55.848;35.916;2023-08-24T11:25:58;99042.53;;;21.82;67.49
76940;BME280;65885;55.848;35.916;2023-08-24T11:28:28;99049.69;;;21.92;67.10
76940;BME280;65885;55.848;35.916;2023-08-24T11:30:56;99048.34;;;22.05;67.75
76940;BME280;65885;55.848;35.916;2023-08-24T11:33:28;99048.59;;;22.22;67.23
76940;BME280;65885;55.848;35.916;2023-08-24T11:35:56;99058.53;;;22.39;67.53
76940;BME280;65885;55.848;35.916;2023-08-24T11:38:25;99051.84;;;22.53;66.45
76940;BME280;65885;55.848;35.916;2023-08-24T11:41:10;99056.13;;;22.63;64.98
76940;BME280;65885;55.848;35.916;2023-08-24T11:43:38;99047.69;;;22.68;65.12
76940;BME280;65885;55.848;35.916;2023-08-24T11:46:05;99048.34;;;22.70;64.71
76940;BME280;65885;55.848;35.916;2023-08-24T11:48:32;99054.16;;;22.65;63.92
76940;BME280;65885;55.848;35.916;2023-08-24T11:51:02;99052.53;;;22.55;64.37
76940;BME280;65885;55.848;35.916;2023-08-24T11:53:31;99049.91;;;22.45;64.73
76940;BME280;65885;55.848;35.916;2023-08-24T11:56:03;99059.25;;;22.31;64.93
76940;BME280;65885;55.848;35.916;2023-08-24T11:58:31;99051.56;;;22.19;64.52
76940;BME280;65885;55.848;35.916;2023-08-24T12:00:59;99056.13;;;22.08;64.86
76940;BME280;65885;55.848;35.916;2023-08-24T12:03:27;99053.31;;;22.00;65.39
76940;BME280;65885;55.848;35.916;2023-08-24T12:05:59;99051.50;;;21.91;66.33
76940;BME280;65885;55.848;35.916;2023-08-24T12:08:26;99052.50;;;21.80;66.66
76940;BME280;65885;55.848;35.916;2023-08-24T12:10:55;99061.25;;;21.73;67.46
76940;BME280;65885;55.848;35.916;2023-08-24T12:13:23;99056.31;;;21.68;66.82
76940;BME280;65885;55.848;35.916;2023-08-24T12:15:52;99055.78;;;21.65;66.56
76940;BME280;65885;55.848;35.916;2023-08-24T12:18:21;99063.22;;;21.61;65.88
76940;BME280;65885;55.848;35.916;2023-08-24T12:20:50;99064.81;;;21.54;65.45
76940;BME280;65885;55.848;35.916;2023-08-24T12:23:17;99066.34;;;21.47;65.77
76940;BME280;65885;55.848;35.916;2023-08-24T12:25:44;99067.47;;;21.35;65.76
76940;BME280;65885;55.848;35.916;2023-08-24T12:28:14;99077.84;;;21.18;65.37
76940;BME280;65885;55.848;35.916;2023-08-24T12:30:49;99072.47;;;20.99;65.81
76940;BME280;65885;55.848;35.916;2023-08-24T12:33:24;99079.63;;;20.79;66.02
76940;BME280;65885;55.848;35.916;2023-08-24T12:35:51;99065.69;;;20.66;67.37
76940;BME280;65885;55.848;35.916;2023-08-24T12:38:21;99076.44;;;20.55;68.00
76940;BME280;65885;55.848;35.916;2023-08-24T12:40:48;99072.63;;;20.47;68.68
76940;BME280;65885;55.848;35.916;2023-08-24T12:43:17;99078.75;;;20.38;68.05
76940;BME280;65885;55.848;35.916;2023-08-24T12:45:45;99084.06;;;20.29;68.41
76940;BME280;65885;55.848;35.916;2023-08-24T12:48:12;99080.38;;;20.20;68.08
76940;BME280;65885;55.848;35.916;2023-08-24T12:50:39;99083.38;;;20.06;68.09
76940;BME280;65885;55.848;35.916;2023-08-24T12:53:07;99095.34;;;19.90;67.82
76940;BME280;65885;55.848;35.916;2023-08-24T12:55:36;99098.34;;;19.76;68.64
76940;BME280;65885;55.848;35.916;2023-08-24T12:58:03;99097.97;;;19.60;68.53